createdAt,value
2017-05-23T00:00:37.439Z,85.53
2017-05-23T00:01:47.701Z,85.34
2017-05-23T00:02:57.650Z,84.86
2017-05-23T00:04:07.535Z,85.05
2017-05-23T00:05:17.243Z,85.05
2017-05-23T00:06:27.565Z,85.34
2017-05-23T00:07:37.824Z,85.15
2017-05-23T00:08:48.088Z,85.34
2017-05-23T00:09:58.353Z,85.62
2017-05-23T00:11:08.609Z,85.53
2017-05-23T00:12:18.883Z,85.72
2017-05-23T00:13:29.141Z,84.95
2017-05-23T00:14:39.402Z,85.62
2017-05-23T00:15:49.664Z,85.53
2017-05-23T00:16:59.928Z,85.53
2017-05-23T00:18:10.197Z,86.19
2017-05-23T00:19:20.459Z,86.76
2017-05-23T00:20:30.410Z,86.47
2017-05-23T00:21:40.681Z,87.52
2017-05-23T00:22:50.940Z,87.62
2017-05-23T00:24:00.887Z,87.62
2017-05-23T00:25:11.189Z,86.86
2017-05-23T00:26:21.447Z,86.76
2017-05-23T00:27:31.706Z,86.57
2017-05-23T00:28:41.658Z,86.82
2017-05-23T00:29:51.925Z,86.82
2017-05-23T00:31:02.188Z,87.01
2017-05-23T00:32:12.452Z,87.19
2017-05-23T00:33:22.774Z,87.19
2017-05-23T00:34:32.723Z,87.19
2017-05-23T00:35:42.985Z,86.91
2017-05-23T00:36:53.242Z,86.34
2017-05-23T00:38:03.181Z,86.34
2017-05-23T00:39:13.515Z,86.63
2017-05-23T00:40:23.464Z,86.43
2017-05-23T00:41:33.719Z,86.72
2017-05-23T00:42:43.973Z,86.72
2017-05-23T00:43:53.926Z,87.57
2017-05-23T00:45:04.190Z,87.76
2017-05-23T00:46:14.450Z,87.86
2017-05-23T00:47:24.710Z,87.38
2017-05-23T00:48:34.972Z,88.34
2017-05-23T00:49:45.233Z,88.43
2017-05-23T00:50:55.493Z,88.53
2017-05-23T00:52:05.753Z,89.19
2017-05-23T00:53:15.703Z,89.28
2017-05-23T00:54:25.652Z,89.19
2017-05-23T00:55:35.913Z,89
2017-05-23T00:56:46.173Z,88.9
2017-05-23T00:57:56.118Z,88.81
2017-05-23T00:59:06.379Z,88.9
2017-05-23T01:00:16.008Z,88.01
2017-05-23T01:01:26.261Z,88.67
2017-05-23T01:02:36.536Z,88.57
2017-05-23T01:03:46.490Z,88.95
2017-05-23T01:04:56.746Z,88.29
2017-05-23T01:06:06.700Z,88.39
2017-05-23T01:07:16.643Z,88.76
2017-05-23T01:08:26.595Z,88.95
2017-05-23T01:09:36.861Z,89.24
2017-05-23T01:10:47.125Z,89.43
2017-05-23T01:11:57.394Z,89.24
2017-05-23T01:13:07.654Z,89.72
2017-05-23T01:14:17.911Z,90
2017-05-23T01:15:28.175Z,89.9
2017-05-23T01:16:38.497Z,90.19
2017-05-23T01:17:48.754Z,89.72
2017-05-23T01:18:59.016Z,90
2017-05-23T01:20:09.279Z,90.38
2017-05-23T01:21:19.536Z,90.28
2017-05-23T01:22:29.795Z,90.85
2017-05-23T01:23:40.060Z,90.19
2017-05-23T01:24:50.325Z,90.28
2017-05-23T01:26:00.588Z,89.62
2017-05-23T01:27:10.845Z,90.47
2017-05-23T01:28:21.162Z,90.38
2017-05-23T01:29:31.428Z,90.57
2017-05-23T01:30:41.693Z,91.14
2017-05-23T01:31:51.638Z,91.61
2017-05-23T01:33:01.897Z,91.24
2017-05-23T01:34:12.168Z,91.89
2017-05-23T01:35:22.428Z,91.52
2017-05-23T01:36:32.684Z,91.71
2017-05-23T01:37:42.627Z,91.71
2017-05-23T01:38:52.896Z,91.42
2017-05-23T01:40:03.161Z,91.24
2017-05-23T01:41:13.424Z,91.33
2017-05-23T01:42:23.681Z,91.24
2017-05-23T01:43:33.940Z,91.33
2017-05-23T01:44:44.207Z,91.52
2017-05-23T01:45:54.464Z,91.52
2017-05-23T01:47:04.731Z,91.61
2017-05-23T01:48:14.990Z,90.95
2017-05-23T01:49:24.936Z,91.61
2017-05-23T01:50:35.200Z,91
2017-05-23T01:51:45.456Z,91.28
2017-05-23T01:52:55.779Z,91.56
2017-05-23T01:54:06.035Z,91.66
2017-05-23T01:55:15.997Z,91.66
2017-05-23T01:56:25.945Z,91.66
2017-05-23T01:57:36.224Z,91.66
2017-05-23T01:58:46.178Z,91.66
2017-05-23T01:59:56.432Z,91.47
2017-05-23T02:01:06.382Z,91.19
2017-05-23T02:02:16.645Z,91.56
2017-05-23T02:03:26.590Z,91.28
2017-05-23T02:04:36.845Z,90.9
2017-05-23T02:05:47.104Z,91.66
2017-05-23T02:06:57.360Z,92.23
2017-05-23T02:08:07.610Z,92.14
2017-05-23T02:09:17.562Z,92.52
2017-05-23T02:10:27.190Z,92.71
2017-05-23T02:11:37.445Z,92.23
2017-05-23T02:12:49.708Z,91.66
2017-05-23T02:14:00.008Z,92.23
2017-05-23T02:15:09.958Z,92.14
2017-05-23T02:16:20.213Z,92.14
2017-05-23T02:17:30.468Z,92.61
2017-05-23T02:18:40.731Z,91.85
2017-05-23T02:19:50.689Z,92.04
2017-05-23T02:21:00.945Z,92.14
2017-05-23T02:22:11.215Z,91.47
2017-05-23T02:23:21.475Z,92.04
2017-05-23T02:24:31.740Z,91.94
2017-05-23T02:25:41.372Z,91.28
2017-05-23T02:26:51.631Z,91.56
2017-05-23T02:28:01.885Z,91.47
2017-05-23T02:29:11.837Z,91.66
2017-05-23T02:30:22.403Z,91.75
2017-05-23T02:31:32.661Z,91.94
2017-05-23T02:32:42.921Z,91.38
2017-05-23T02:33:52.865Z,92.04
2017-05-23T02:35:03.122Z,91.66
2017-05-23T02:36:13.394Z,92.42
2017-05-23T02:37:23.724Z,92.23
2017-05-23T02:38:33.672Z,91.94
2017-05-23T02:39:43.927Z,92.47
2017-05-23T02:40:53.868Z,91.52
2017-05-23T02:42:04.385Z,91.33
2017-05-23T02:43:14.332Z,91.33
2017-05-23T02:44:24.594Z,91.8
2017-05-23T02:45:34.540Z,90.95
2017-05-23T02:46:44.798Z,91.24
2017-05-23T02:47:57.066Z,91.24
2017-05-23T02:49:07.328Z,90.76
2017-05-23T02:50:17.595Z,91.42
2017-05-23T02:51:27.851Z,91.71
2017-05-23T02:52:38.102Z,90.62
2017-05-23T02:53:48.359Z,90.52
2017-05-23T02:54:58.628Z,90.28
2017-05-23T02:56:08.276Z,90.05
2017-05-23T02:57:18.535Z,90.24
2017-05-23T02:58:28.795Z,90.24
2017-05-23T02:59:39.052Z,90.81
2017-05-23T03:00:48.684Z,90.62
2017-05-23T03:01:58.631Z,90.14
2017-05-23T03:03:08.890Z,90.43
2017-05-23T03:04:19.162Z,89.76
2017-05-23T03:05:28.850Z,89.95
2017-05-23T03:06:39.112Z,90.62
2017-05-23T03:07:49.054Z,90.24
2017-05-23T03:08:59.318Z,89.95
2017-05-23T03:10:09.578Z,90.14
2017-05-23T03:11:19.842Z,91.38
2017-05-23T03:12:29.489Z,91.19
2017-05-23T03:13:39.749Z,91.19
2017-05-23T03:14:49.695Z,90.62
2017-05-23T03:15:59.347Z,90.05
2017-05-23T03:17:11.809Z,91.75
2017-05-23T03:18:22.123Z,91.19
2017-05-23T03:19:32.065Z,91.56
2017-05-23T03:20:42.324Z,91.75
2017-05-23T03:21:52.574Z,92.04
2017-05-23T03:23:02.520Z,92.23
2017-05-23T03:24:12.465Z,91.85
2017-05-23T03:25:22.723Z,91.28
2017-05-23T03:26:32.984Z,91.19
2017-05-23T03:27:43.255Z,91.47
2017-05-23T03:28:53.518Z,91.56
2017-05-23T03:30:03.146Z,90.62
2017-05-23T03:31:13.465Z,90.71
2017-05-23T03:32:23.102Z,90.81
2017-05-23T03:33:33.050Z,90.43
2017-05-23T03:34:42.991Z,90.14
2017-05-23T03:35:52.935Z,90.24
2017-05-23T03:37:03.191Z,91.56
2017-05-23T03:38:13.137Z,91.85
2017-05-23T03:39:23.404Z,91.94
2017-05-23T03:40:33.660Z,91.75
2017-05-23T03:41:43.921Z,91.28
2017-05-23T03:42:54.218Z,91.85
2017-05-23T03:44:04.479Z,91.38
2017-05-23T03:45:14.426Z,91.66
2017-05-23T03:46:24.685Z,92.14
2017-05-23T03:47:34.946Z,92.42
2017-05-23T03:48:45.214Z,92.42
2017-05-23T03:49:55.162Z,92.14
2017-05-23T03:51:05.417Z,92.42
2017-05-23T03:52:15.676Z,92.33
2017-05-23T03:53:25.618Z,92.09
2017-05-23T03:54:35.561Z,92.66
2017-05-23T03:55:45.823Z,92.66
2017-05-23T03:56:56.076Z,93.04
2017-05-23T03:58:06.033Z,91.99
2017-05-23T03:59:16.287Z,91.33
2017-05-23T04:00:26.546Z,90.95
2017-05-23T04:01:36.493Z,90.76
2017-05-23T04:02:46.437Z,90.47
2017-05-23T04:03:56.703Z,91.04
2017-05-23T04:05:06.960Z,92.28
2017-05-23T04:06:17.218Z,92.47
2017-05-23T04:07:27.483Z,92.18
2017-05-23T04:08:37.752Z,92.18
2017-05-23T04:09:48.016Z,92.18
2017-05-23T04:10:58.277Z,92.18
2017-05-23T04:12:08.542Z,92.47
2017-05-23T04:13:18.486Z,92.09
2017-05-23T04:14:28.751Z,92.37
2017-05-23T04:15:39.085Z,92.18
2017-05-23T04:16:49.031Z,92.18
2017-05-23T04:17:58.975Z,91.66
2017-05-23T04:19:08.919Z,91.42
2017-05-23T04:20:19.183Z,91.19
2017-05-23T04:21:29.443Z,90.61
2017-05-23T04:22:39.384Z,90.76
2017-05-23T04:23:49.328Z,90.52
2017-05-23T04:24:59.586Z,90.52
2017-05-23T04:26:09.535Z,90.61
2017-05-23T04:27:19.791Z,90.61
2017-05-23T04:28:30.051Z,91.75
2017-05-23T04:29:40.306Z,90.52
2017-05-23T04:30:50.564Z,90.71
2017-05-23T04:32:00.510Z,90.33
2017-05-23T04:33:10.779Z,90.14
2017-05-23T04:34:20.730Z,90.23
2017-05-23T04:35:30.997Z,90.14
2017-05-23T04:36:41.260Z,90.8
2017-05-23T04:37:50.891Z,90.71
2017-05-23T04:39:01.148Z,90.23
2017-05-23T04:40:11.407Z,89.23
2017-05-23T04:41:21.672Z,89.19
2017-05-23T04:42:31.619Z,89.33
2017-05-23T04:43:41.892Z,89.14
2017-05-23T04:44:52.159Z,89.14
2017-05-23T04:46:02.436Z,89.23
2017-05-23T04:47:12.397Z,89.04
2017-05-23T04:48:22.659Z,88.76
2017-05-23T04:49:32.610Z,88.85
2017-05-23T04:50:42.870Z,89.42
2017-05-23T04:51:53.139Z,89.71
2017-05-23T04:53:03.398Z,89.14
2017-05-23T04:54:13.677Z,87.52
2017-05-23T04:55:23.316Z,87.62
2017-05-23T04:56:33.588Z,88
2017-05-23T04:57:43.855Z,88.57
2017-05-23T04:58:54.128Z,87.34
2017-05-23T05:00:04.389Z,87.24
2017-05-23T05:01:14.665Z,86.86
2017-05-23T05:02:24.935Z,87.34
2017-05-23T05:03:34.879Z,87.81
2017-05-23T05:04:44.827Z,87.52
2017-05-23T05:05:54.775Z,87.24
2017-05-23T05:07:04.409Z,87.05
2017-05-23T05:08:14.676Z,86.95
2017-05-23T05:09:24.946Z,87.28
2017-05-23T05:10:34.896Z,87.38
2017-05-23T05:11:45.165Z,87.57
2017-05-23T05:12:54.795Z,87.66
2017-05-23T05:14:05.116Z,86.71
2017-05-23T05:15:15.061Z,86.61
2017-05-23T05:16:25.064Z,87.28
2017-05-23T05:17:35.327Z,86.71
2017-05-23T05:18:45.277Z,86.33
2017-05-23T05:19:55.542Z,86.43
2017-05-23T05:21:05.484Z,86.52
2017-05-23T05:22:15.747Z,86.43
2017-05-23T05:23:26.007Z,86.05
2017-05-23T05:24:35.954Z,86.33
2017-05-23T05:25:45.899Z,86.33
2017-05-23T05:26:56.161Z,85.9
2017-05-23T05:28:06.109Z,86.14
2017-05-23T05:29:16.056Z,85.61
2017-05-23T05:30:26.006Z,85.99
2017-05-23T05:31:36.266Z,85.04
2017-05-23T05:32:46.531Z,84.56
2017-05-23T05:33:56.172Z,84.85
2017-05-23T05:35:06.434Z,85.61
2017-05-23T05:36:16.380Z,84.76
2017-05-23T05:37:26.643Z,84.47
2017-05-23T05:38:36.903Z,84.19
2017-05-23T05:39:47.172Z,83.62
2017-05-23T05:40:56.812Z,84.19
2017-05-23T05:42:07.080Z,84.56
2017-05-23T05:43:17.027Z,83.81
2017-05-23T05:44:26.973Z,84.56
2017-05-23T05:45:36.929Z,84.76
2017-05-23T05:46:47.195Z,83.42
2017-05-23T05:47:57.147Z,83.04
2017-05-23T05:49:06.776Z,83.14
2017-05-23T05:50:17.039Z,83.71
2017-05-23T05:51:26.677Z,84.04
2017-05-23T05:52:36.935Z,85.18
2017-05-23T05:53:47.205Z,84.52
2017-05-23T05:54:57.169Z,85.28
2017-05-23T05:56:07.439Z,85.08
2017-05-23T05:57:17.389Z,84.8
2017-05-23T05:58:27.340Z,85.47
2017-05-23T05:59:37.294Z,84.04
2017-05-23T06:00:47.556Z,84.47
2017-05-23T06:01:57.502Z,84.38
2017-05-23T06:03:07.762Z,82.67
2017-05-23T06:04:18.028Z,83.56
2017-05-23T06:05:28.288Z,83.52
2017-05-23T06:06:38.248Z,83.18
2017-05-23T06:07:48.514Z,83.75
2017-05-23T06:08:58.774Z,84.7
2017-05-23T06:10:08.730Z,84.42
2017-05-23T06:11:18.369Z,83.47
2017-05-23T06:12:28.315Z,83.65
2017-05-23T06:13:38.577Z,83.18
2017-05-23T06:14:48.838Z,81.66
2017-05-23T06:15:59.104Z,82.9
2017-05-23T06:17:09.369Z,81.28
2017-05-23T06:18:19.320Z,81.66
2017-05-23T06:19:29.591Z,81.76
2017-05-23T06:20:39.855Z,80.23
2017-05-23T06:21:50.117Z,80.13
2017-05-23T06:23:00.382Z,80.9
2017-05-23T06:24:10.331Z,81.09
2017-05-23T06:25:20.600Z,79.85
2017-05-23T06:26:30.230Z,80.04
2017-05-23T06:27:39.865Z,79.94
2017-05-23T06:28:50.133Z,77
2017-05-23T06:30:00.081Z,77.19
2017-05-23T06:31:09.726Z,78.61
2017-05-23T06:32:19.676Z,75.47
2017-05-23T06:33:29.932Z,75.76
2017-05-23T06:34:40.199Z,75.95
2017-05-23T06:35:50.156Z,72.37
2017-05-23T06:37:00.108Z,73.76
2017-05-23T06:38:10.369Z,75.99
2017-05-23T06:39:20.322Z,75.13
2017-05-23T06:40:30.275Z,75.13
2017-05-23T06:41:40.227Z,73.61
2017-05-23T06:42:49.865Z,75.32
2017-05-23T06:43:59.817Z,75.6
2017-05-23T06:45:10.081Z,74.56
2017-05-23T06:46:20.346Z,74.37
2017-05-23T06:47:29.978Z,75.89
2017-05-23T06:48:39.924Z,75.6
2017-05-23T06:49:49.892Z,73.32
2017-05-23T06:51:00.157Z,71.7
2017-05-23T06:52:10.427Z,72.85
2017-05-23T06:53:20.373Z,72.17
2017-05-23T06:54:30.326Z,72.69
2017-05-23T06:55:40.597Z,73.41
2017-05-23T06:56:50.855Z,73.36
2017-05-23T06:58:01.121Z,70.5
2017-05-23T06:59:11.392Z,70.78
2017-05-23T07:00:21.340Z,73.07
2017-05-23T07:01:31.600Z,72.21
2017-05-23T07:02:41.546Z,70.88
2017-05-23T07:03:51.500Z,69.64
2017-05-23T07:05:01.765Z,69.74
2017-05-23T07:06:11.401Z,68.59
2017-05-23T07:07:21.663Z,71.07
2017-05-23T07:08:31.611Z,70.02
2017-05-23T07:09:41.557Z,69.45
2017-05-23T07:10:51.818Z,69.74
2017-05-23T07:12:01.764Z,69.64
2017-05-23T07:13:11.722Z,68.59
2017-05-23T07:14:21.682Z,70.02
2017-05-23T07:15:31.623Z,68.88
2017-05-23T07:16:41.879Z,70.18
2017-05-23T07:17:52.140Z,69.74
2017-05-23T07:19:02.401Z,71.17
2017-05-23T07:20:12.351Z,71.64
2017-05-23T07:21:21.989Z,71.36
2017-05-23T07:22:31.937Z,70.5
2017-05-23T07:23:42.199Z,69.93
2017-05-23T07:24:51.835Z,69.54
2017-05-23T07:26:02.097Z,69.93
2017-05-23T07:27:12.048Z,69.07
2017-05-23T07:28:22.312Z,65.45
2017-05-23T07:29:32.263Z,66.5
2017-05-23T07:30:42.534Z,68.5
2017-05-23T07:31:52.172Z,68.98
2017-05-23T07:33:02.436Z,68.63
2017-05-23T07:34:12.458Z,68.34
2017-05-23T07:35:22.097Z,68.44
2017-05-23T07:36:31.735Z,67.2
2017-05-23T07:37:41.690Z,66.82
2017-05-23T07:38:51.954Z,68.34
2017-05-23T07:40:01.914Z,67.48
2017-05-23T07:41:12.181Z,67.48
2017-05-23T07:42:21.820Z,66.82
2017-05-23T07:43:32.081Z,65.77
2017-05-23T07:44:42.037Z,64.72
2017-05-23T07:45:51.990Z,65.48
2017-05-23T07:47:02.250Z,67.39
2017-05-23T07:48:12.521Z,66.34
2017-05-23T07:49:22.477Z,65.58
2017-05-23T07:50:32.429Z,64.05
2017-05-23T07:51:42.379Z,63.2
2017-05-23T07:52:52.645Z,63.86
2017-05-23T07:54:02.628Z,64.34
2017-05-23T07:55:12.577Z,65.2
2017-05-23T07:56:22.527Z,66.91
2017-05-23T07:57:32.165Z,64.05
2017-05-23T07:58:42.443Z,62.91
2017-05-23T07:59:52.087Z,62.72
2017-05-23T08:01:02.351Z,65.58
2017-05-23T08:02:12.631Z,66.44
2017-05-23T08:03:22.265Z,65.96
2017-05-23T08:04:32.416Z,65.52
2017-05-23T08:05:43.124Z,65.04
2017-05-23T08:06:53.198Z,65.23
2017-05-23T08:08:02.836Z,64.09
2017-05-23T08:09:12.156Z,63.6
2017-05-23T08:10:22.105Z,64.65
2017-05-23T08:11:31.746Z,64.75
2017-05-23T08:12:41.702Z,65.8
2017-05-23T08:13:51.965Z,67.33
2017-05-23T08:15:02.245Z,66.85
2017-05-23T08:16:12.510Z,66.47
2017-05-23T08:17:22.459Z,66.18
2017-05-23T08:18:32.144Z,65.13
2017-05-23T08:19:42.409Z,65.89
2017-05-23T08:20:52.688Z,65.13
2017-05-23T08:22:02.631Z,65.55
2017-05-23T08:23:12.267Z,64.88
2017-05-23T08:24:22.227Z,65.07
2017-05-23T08:25:32.492Z,64.78
2017-05-23T08:26:42.438Z,64.02
2017-05-23T08:27:52.076Z,65.07
2017-05-23T08:29:02.342Z,64.12
2017-05-23T08:30:12.294Z,60.39
2017-05-23T08:31:22.244Z,59.82
2017-05-23T08:32:32.519Z,60.3
2017-05-23T08:33:42.477Z,60.68
2017-05-23T08:34:52.742Z,61.44
2017-05-23T08:36:02.388Z,60.02
2017-05-23T08:37:12.027Z,58.48
2017-05-23T08:38:21.666Z,59.53
2017-05-23T08:39:31.936Z,60.11
2017-05-23T08:40:41.920Z,59.92
2017-05-23T08:41:51.869Z,61.54
2017-05-23T08:43:01.824Z,61.25
2017-05-23T08:44:11.793Z,60.78
2017-05-23T08:45:21.748Z,60.11
2017-05-23T08:46:31.696Z,60.11
2017-05-23T08:47:41.967Z,62.97
2017-05-23T08:48:52.256Z,60.39
2017-05-23T08:50:02.525Z,59.44
2017-05-23T08:51:12.472Z,60.02
2017-05-23T08:52:22.418Z,61.92
2017-05-23T08:53:32.688Z,60.02
2017-05-23T08:54:42.016Z,60.49
2017-05-23T08:55:51.964Z,60.58
2017-05-23T08:57:02.222Z,61.83
2017-05-23T08:58:12.485Z,61.76
2017-05-23T08:59:22.755Z,61.86
2017-05-23T09:00:33.022Z,61
2017-05-23T09:01:43.285Z,61.76
2017-05-23T09:02:53.240Z,62.15
2017-05-23T09:04:03.507Z,62.15
2017-05-23T09:05:13.461Z,62.43
2017-05-23T09:06:23.092Z,62.81
2017-05-23T09:07:33.349Z,63.2
2017-05-23T09:08:43.620Z,62.27
2017-05-23T09:09:53.567Z,62.08
2017-05-23T09:11:03.834Z,62.46
2017-05-23T09:12:14.094Z,61.98
2017-05-23T09:13:24.043Z,61.69
2017-05-23T09:14:34.307Z,60.93
2017-05-23T09:15:44.261Z,59.12
2017-05-23T09:16:54.528Z,60.27
2017-05-23T09:18:04.798Z,59.22
2017-05-23T09:19:14.757Z,59.41
2017-05-23T09:20:25.025Z,60.07
2017-05-23T09:21:35.289Z,60.84
2017-05-23T09:22:45.556Z,61.22
2017-05-23T09:23:55.194Z,61.89
2017-05-23T09:25:05.145Z,61.69
2017-05-23T09:26:15.413Z,63.07
2017-05-23T09:27:25.677Z,64.69
2017-05-23T09:28:35.318Z,64.4
2017-05-23T09:29:44.962Z,64.31
2017-05-23T09:30:55.233Z,63.16
2017-05-23T09:32:04.563Z,62.3
2017-05-23T09:33:14.828Z,62.01
2017-05-23T09:34:24.784Z,59.91
2017-05-23T09:35:34.731Z,60.01
2017-05-23T09:36:44.053Z,61.47
2017-05-23T09:37:54.006Z,61.66
2017-05-23T09:39:04.280Z,60.71
2017-05-23T09:40:13.981Z,59.53
2017-05-23T09:41:24.246Z,59.18
2017-05-23T09:42:34.510Z,60.77
2017-05-23T09:43:43.838Z,63.16
2017-05-23T09:44:54.108Z,62.59
2017-05-23T09:46:04.386Z,61.95
2017-05-23T09:47:14.346Z,61.63
2017-05-23T09:48:24.616Z,60.87
2017-05-23T09:49:34.571Z,59.81
2017-05-23T09:50:44.837Z,64.02
2017-05-23T09:51:55.097Z,62.24
2017-05-23T09:53:04.737Z,61.82
2017-05-23T09:54:14.691Z,60.9
2017-05-23T09:55:24.962Z,61.47
2017-05-23T09:56:34.598Z,61.38
2017-05-23T09:57:44.862Z,62.33
2017-05-23T09:58:55.128Z,60.61
2017-05-23T10:00:04.770Z,61.76
2017-05-23T10:01:14.728Z,65.68
2017-05-23T10:02:24.678Z,65.11
2017-05-23T10:03:34.630Z,64.53
2017-05-23T10:04:44.270Z,62.17
2017-05-23T10:05:54.535Z,62.14
2017-05-23T10:07:04.804Z,62.17
2017-05-23T10:08:14.444Z,60.93
2017-05-23T10:09:24.396Z,60.55
2017-05-23T10:10:34.669Z,60.83
2017-05-23T10:11:44.316Z,62.08
2017-05-23T10:12:54.265Z,62.27
2017-05-23T10:14:04.530Z,62.94
2017-05-23T10:15:14.487Z,62.17
2017-05-23T10:16:24.122Z,63.13
2017-05-23T10:17:34.067Z,62.74
2017-05-23T10:18:44.026Z,63.93
2017-05-23T10:19:53.977Z,60.77
2017-05-23T10:21:03.925Z,60.96
2017-05-23T10:22:14.188Z,59.33
2017-05-23T10:23:23.838Z,59.52
2017-05-23T10:24:34.118Z,61.54
2017-05-23T10:25:44.074Z,62.01
2017-05-23T10:26:54.341Z,60.77
2017-05-23T10:28:03.976Z,60.48
2017-05-23T10:29:14.288Z,60.8
2017-05-23T10:30:24.243Z,61.18
2017-05-23T10:31:34.511Z,61.66
2017-05-23T10:32:44.462Z,61.57
2017-05-23T10:33:54.727Z,61.18
2017-05-23T10:35:04.998Z,60.89
2017-05-23T10:36:14.960Z,61.94
2017-05-23T10:37:24.914Z,61.57
2017-05-23T10:38:35.185Z,60.8
2017-05-23T10:39:45.144Z,59.36
2017-05-23T10:40:55.419Z,57.38
2017-05-23T10:42:05.687Z,58.34
2017-05-23T10:43:15.958Z,58.53
2017-05-23T10:44:25.284Z,60.44
2017-05-23T10:45:35.559Z,59.39
2017-05-23T10:46:45.518Z,60.54
2017-05-23T10:47:55.801Z,61.69
2017-05-23T10:49:05.764Z,59.2
2017-05-23T10:50:15.403Z,59.3
2017-05-23T10:51:25.359Z,59.87
2017-05-23T10:52:35.310Z,58.84
2017-05-23T10:53:45.274Z,59.9
2017-05-23T10:54:55.544Z,57.79
2017-05-23T10:56:05.182Z,58.75
2017-05-23T10:57:15.140Z,59.13
2017-05-23T10:58:24.463Z,58.94
2017-05-23T10:59:34.423Z,58.65
2017-05-23T11:00:44.696Z,58.11
2017-05-23T11:01:54.966Z,57.72
2017-05-23T11:03:04.917Z,58.78
2017-05-23T11:04:15.190Z,58.59
2017-05-23T11:05:25.138Z,59.16
2017-05-23T11:06:34.784Z,58.14
2017-05-23T11:07:44.741Z,59
2017-05-23T11:08:55.013Z,59.67
2017-05-23T11:10:04.970Z,59.09
2017-05-23T11:11:15.241Z,57.95
2017-05-23T11:12:25.195Z,58.23
2017-05-23T11:13:35.154Z,58.33
2017-05-23T11:14:45.110Z,56.98
2017-05-23T11:15:55.381Z,56.79
2017-05-23T11:17:05.662Z,56.82
2017-05-23T11:18:15.621Z,55.93
2017-05-23T11:19:25.889Z,54.23
2017-05-23T11:20:36.153Z,54.8
2017-05-23T11:21:46.110Z,54.93
2017-05-23T11:22:56.372Z,53.8
2017-05-23T11:24:06.641Z,51.69
2017-05-23T11:25:16.605Z,52.29
2017-05-23T11:26:26.874Z,50.46
2017-05-23T11:27:36.833Z,50.78
2017-05-23T11:28:47.107Z,49.94
2017-05-23T11:29:57.392Z,49.96
2017-05-23T11:31:07.665Z,48.74
2017-05-23T11:32:17.626Z,48.21
2017-05-23T11:33:27.901Z,45.34
2017-05-23T11:34:37.858Z,45.65
2017-05-23T11:35:48.139Z,43.06
2017-05-23T11:36:58.097Z,41.36
2017-05-23T11:38:08.371Z,41.41
2017-05-23T11:39:18.329Z,39.2
2017-05-23T11:40:28.289Z,40.86
2017-05-23T11:41:37.931Z,39.26
2017-05-23T11:42:47.580Z,37.07
2017-05-23T11:43:57.868Z,37.47
2017-05-23T11:45:07.829Z,35.06
2017-05-23T11:46:17.157Z,35.86
2017-05-23T11:47:27.438Z,34.92
2017-05-23T11:48:37.720Z,34.45
2017-05-23T11:49:47.687Z,33.78
2017-05-23T11:50:57.334Z,31.66
2017-05-23T11:52:07.616Z,31.09
2017-05-23T11:53:17.901Z,29.92
2017-05-23T11:54:28.180Z,30.99
2017-05-23T11:55:38.149Z,30.05
2017-05-23T11:56:48.125Z,30.08
2017-05-23T11:57:57.775Z,29.21
2017-05-23T11:59:07.739Z,29.6
2017-05-23T12:00:17.709Z,26.88
2017-05-23T12:01:27.987Z,23.94
2017-05-23T12:02:38.270Z,25.9
2017-05-23T12:03:48.247Z,26.98
2017-05-23T12:04:57.899Z,26.01
2017-05-23T12:06:07.871Z,25.73
2017-05-23T12:07:17.846Z,24.86
2017-05-23T12:08:27.563Z,25.55
2017-05-23T12:09:37.849Z,23.7
2017-05-23T12:10:48.139Z,25.56
2017-05-23T12:11:57.794Z,25.07
2017-05-23T12:13:07.766Z,24.48
2017-05-23T12:14:17.429Z,24.49
2017-05-23T12:15:27.718Z,24.69
2017-05-23T12:16:38.003Z,22.94
2017-05-23T12:17:48.305Z,23.23
2017-05-23T12:18:58.602Z,21.86
2017-05-23T12:20:08.581Z,22.55
2017-05-23T12:21:18.553Z,22.94
2017-05-23T12:22:28.837Z,23.23
2017-05-23T12:23:38.809Z,21.87
2017-05-23T12:24:48.791Z,21.38
2017-05-23T12:25:59.068Z,20.99
2017-05-23T12:27:09.052Z,21.19
2017-05-23T12:28:18.707Z,21
2017-05-23T12:29:29.002Z,21.67
2017-05-23T12:30:38.972Z,20.61
2017-05-23T12:31:48.628Z,20.31
2017-05-23T12:32:58.923Z,21.87
2017-05-23T12:34:09.212Z,20.9
2017-05-23T12:35:18.877Z,21.28
2017-05-23T12:36:28.858Z,20.7
2017-05-23T12:37:39.196Z,19.32
2017-05-23T12:38:49.491Z,20.2
2017-05-23T12:39:59.208Z,21.37
2017-05-23T12:41:09.175Z,22.26
2017-05-23T12:42:19.154Z,20.31
2017-05-23T12:43:29.441Z,18.94
2017-05-23T12:44:39.103Z,19.04
2017-05-23T12:45:49.080Z,20.69
2017-05-23T12:46:59.057Z,20.88
2017-05-23T12:48:09.033Z,21.28
2017-05-23T12:49:19.007Z,21.98
2017-05-23T12:50:28.978Z,20.32
2017-05-23T12:51:39.268Z,17.96
2017-05-23T12:52:49.569Z,20.41
2017-05-23T12:53:59.861Z,20.1
2017-05-23T12:55:09.532Z,21.19
2017-05-23T12:56:19.191Z,20.42
2017-05-23T12:57:29.481Z,18.66
2017-05-23T12:58:39.142Z,19.16
2017-05-23T12:59:49.109Z,17.79
2017-05-23T13:00:59.396Z,17.98
2017-05-23T13:02:09.687Z,18.37
2017-05-23T13:03:19.664Z,17.79
2017-05-23T13:04:29.641Z,18.56
2017-05-23T13:05:39.939Z,18.56
2017-05-23T13:06:49.917Z,16.8
2017-05-23T13:07:59.574Z,17.68
2017-05-23T13:09:09.868Z,19.14
2017-05-23T13:10:19.532Z,19.26
2017-05-23T13:11:29.506Z,18.48
2017-05-23T13:12:39.489Z,18.88
2017-05-23T13:13:49.472Z,17.5
2017-05-23T13:14:59.457Z,15.93
2017-05-23T13:16:09.429Z,17.12
2017-05-23T13:17:18.781Z,16.73
2017-05-23T13:18:29.056Z,17.32
2017-05-23T13:19:39.343Z,16.74
2017-05-23T13:20:48.139Z,14.76
2017-05-23T13:21:57.804Z,17.79
2017-05-23T13:23:07.782Z,17.22
2017-05-23T13:24:17.747Z,17.72
2017-05-23T13:25:28.045Z,17.23
2017-05-23T13:26:38.335Z,17.54
2017-05-23T13:27:48.631Z,17.83
2017-05-23T13:28:58.297Z,16.16
2017-05-23T13:30:07.953Z,17.04
2017-05-23T13:31:18.241Z,16.64
2017-05-23T13:32:28.228Z,17.63
2017-05-23T13:33:38.522Z,17.24
2017-05-23T13:34:48.810Z,17.04
2017-05-23T13:35:58.789Z,17.14
2017-05-23T13:37:08.457Z,16.55
2017-05-23T13:38:18.460Z,16.55
2017-05-23T13:39:28.761Z,17.05
2017-05-23T13:40:38.423Z,17.04
2017-05-23T13:41:48.401Z,16.83
2017-05-23T13:42:58.060Z,17.21
2017-05-23T13:44:08.029Z,16.71
2017-05-23T13:45:17.379Z,17.11
2017-05-23T13:46:27.673Z,16.13
2017-05-23T13:47:37.407Z,16.23
2017-05-23T13:48:47.695Z,16.03
2017-05-23T13:49:57.674Z,15.15
2017-05-23T13:51:07.960Z,16.92
2017-05-23T13:52:18.247Z,16.02
2017-05-23T13:53:27.906Z,16.81
2017-05-23T13:54:37.891Z,17.69
2017-05-23T13:55:48.182Z,17.4
2017-05-23T13:56:58.160Z,16.82
2017-05-23T13:58:07.832Z,17.4
2017-05-23T13:59:18.125Z,17.02
2017-05-23T14:00:28.428Z,17.3
2017-05-23T14:01:38.404Z,17.21
2017-05-23T14:02:48.692Z,16.63
2017-05-23T14:03:58.684Z,15.35
2017-05-23T14:05:08.971Z,16.14
2017-05-23T14:06:19.009Z,15.34
2017-05-23T14:07:28.991Z,16.78
2017-05-23T14:08:39.284Z,17.65
2017-05-23T14:09:49.577Z,17.86
2017-05-23T14:10:59.874Z,16.61
2017-05-23T14:12:09.854Z,16.22
2017-05-23T14:13:19.833Z,16.02
2017-05-23T14:14:30.122Z,16.61
2017-05-23T14:15:40.096Z,16.03
2017-05-23T14:16:50.071Z,14.95
2017-05-23T14:18:00.378Z,16.71
2017-05-23T14:19:10.045Z,16.81
2017-05-23T14:20:20.361Z,16.14
2017-05-23T14:21:30.646Z,14.76
2017-05-23T14:22:40.938Z,15.95
2017-05-23T14:23:50.911Z,16.14
2017-05-23T14:25:00.894Z,14.18
2017-05-23T14:26:10.557Z,14.87
2017-05-23T14:27:20.221Z,14.18
2017-05-23T14:28:30.508Z,13.78
2017-05-23T14:29:40.796Z,14.75
2017-05-23T14:30:50.462Z,14.83
2017-05-23T14:32:00.756Z,14.54
2017-05-23T14:33:10.103Z,14.94
2017-05-23T14:34:20.097Z,15.44
2017-05-23T14:35:30.081Z,14.76
2017-05-23T14:36:40.368Z,14.76
2017-05-23T14:37:50.026Z,14.67
2017-05-23T14:39:00.315Z,13.78
2017-05-23T14:40:10.297Z,15.06
2017-05-23T14:41:19.959Z,13.87
2017-05-23T14:42:30.242Z,12.7
2017-05-23T14:43:40.530Z,14.07
2017-05-23T14:44:50.819Z,14.76
2017-05-23T14:46:01.109Z,13.98
2017-05-23T14:47:11.076Z,14.07
2017-05-23T14:48:21.043Z,14.36
2017-05-23T14:49:31.330Z,13.28
2017-05-23T14:50:40.996Z,14.16
2017-05-23T14:51:50.968Z,13.48
2017-05-23T14:53:00.938Z,13.97
2017-05-23T14:54:11.233Z,14.96
2017-05-23T14:55:21.213Z,13.59
2017-05-23T14:56:31.501Z,12.7
2017-05-23T14:57:41.477Z,13.18
2017-05-23T14:58:51.138Z,12.88
2017-05-23T15:00:01.110Z,14.84
2017-05-23T15:01:11.402Z,14.16
2017-05-23T15:02:21.381Z,12.69
2017-05-23T15:03:31.674Z,13.66
2017-05-23T15:04:41.019Z,13.76
2017-05-23T15:05:50.683Z,13.95